Time;durP1;ratioP1;P1;durP2;ratioP2;P2;SDS_P1;SDS_P2;PMS_P1;PMS_P2;Temp;Humidity;BMP_temperature;BMP_pressure;BME280_temperature;BME280_humidity;BME280_pressure;Samples;Min_cycle;Max_cycle;Signal;HPM_P1;HPM_P2
2022/10/25 00:00:43;;;;;;;3.13;1.70;;;10.20;99.90;;;;;;5074626;28;20512;-76
2022/10/25 00:03:12;;;;;;;1.73;1.53;;;10.10;99.90;;;;;;5077304;28;20544;-77
2022/10/25 00:05:40;;;;;;;1.77;1.43;;;10.10;99.90;;;;;;5075310;28;20541;-77
2022/10/25 00:08:08;;;;;;;1.80;1.60;;;10.10;99.90;;;;;;5073862;28;20536;-77
2022/10/25 00:10:36;;;;;;;2.20;1.87;;;10.20;99.90;;;;;;5071841;28;20529;-77
2022/10/25 00:13:03;;;;;;;2.33;2.13;;;10.10;99.90;;;;;;5073382;28;20487;-77
2022/10/25 00:15:31;;;;;;;3.27;1.57;;;10.10;99.90;;;;;;5074515;28;20555;-77
2022/10/25 00:17:58;;;;;;;1.73;1.63;;;10.20;99.90;;;;;;5074108;28;21152;-77
2022/10/25 00:20:26;;;;;;;2.40;1.40;;;10.30;99.90;;;;;;5074421;28;20591;-77
2022/10/25 00:22:53;;;;;;;2.20;1.37;;;10.20;99.90;;;;;;5075296;28;20482;-76
2022/10/25 00:25:20;;;;;;;1.77;1.10;;;10.30;99.90;;;;;;5078727;28;20560;-76
2022/10/25 00:27:47;;;;;;;1.47;0.90;;;10.30;99.90;;;;;;5073697;28;20497;-77
2022/10/25 00:30:14;;;;;;;4.07;0.90;;;10.30;99.90;;;;;;5085906;28;20456;-77
2022/10/25 00:32:43;;;;;;;1.70;1.07;;;10.30;99.90;;;;;;5093604;28;20527;-77
2022/10/25 00:35:10;;;;;;;1.13;1.03;;;10.30;99.90;;;;;;5095118;28;20462;-77
2022/10/25 00:37:37;;;;;;;1.53;0.60;;;10.20;99.90;;;;;;5098479;28;20483;-77
2022/10/25 00:40:05;;;;;;;1.00;0.63;;;10.20;99.90;;;;;;5091902;28;20547;-77
2022/10/25 00:42:32;;;;;;;0.90;0.70;;;10.10;99.90;;;;;;5087301;28;20583;-77
2022/10/25 00:45:01;;;;;;;1.43;0.70;;;10.20;99.90;;;;;;5087593;28;20547;-77
2022/10/25 00:47:43;;;;;;;0.97;0.77;;;10.30;99.90;;;;;;5099080;28;20462;-76
2022/10/25 00:50:31;;;;;;;0.70;0.60;;;10.40;99.90;;;;;;5090730;28;20465;-77
2022/10/25 00:53:04;;;;;;;1.10;0.80;;;10.50;99.90;;;;;;5099086;28;20461;-77
2022/10/25 00:55:32;;;;;;;1.57;0.87;;;10.60;99.90;;;;;;5088710;28;20886;-77
2022/10/25 00:58:05;;;;;;;1.10;1.00;;;10.60;99.90;;;;;;5098085;28;20454;-76
2022/10/25 01:00:32;;;;;;;1.30;0.90;;;10.60;99.90;;;;;;5085898;28;20471;-77
2022/10/25 01:03:01;;;;;;;2.43;1.40;;;10.60;99.90;;;;;;5087228;28;20486;-76
2022/10/25 01:05:28;;;;;;;1.33;1.03;;;10.50;99.90;;;;;;5099167;28;20558;-76
2022/10/25 01:07:55;;;;;;;1.47;0.80;;;10.50;99.90;;;;;;5093507;28;20454;-76
2022/10/25 01:10:22;;;;;;;0.70;0.70;;;10.60;99.90;;;;;;5087354;27;20911;-76
2022/10/25 01:12:49;;;;;;;0.90;0.90;;;10.60;99.90;;;;;;5091788;28;20486;-76
2022/10/25 01:15:16;;;;;;;0.60;0.50;;;10.60;99.90;;;;;;5100950;28;20506;-76
2022/10/25 01:17:54;;;;;;;1.70;0.90;;;10.60;99.90;;;;;;5088311;28;20474;-76
2022/10/25 01:20:54;;;;;;;0.90;0.90;;;10.60;99.90;;;;;;5099362;28;20542;-76
2022/10/25 01:23:53;;;;;;;1.53;1.20;;;10.60;99.90;;;;;;5076515;28;20485;-76
2022/10/25 01:26:55;;;;;;;0.83;0.63;;;10.50;99.90;;;;;;5072348;28;20465;-76
2022/10/25 01:29:49;;;;;;;2.60;0.90;;;10.50;99.90;;;;;;5094552;28;21013;-77
2022/10/25 01:32:23;;;;;;;1.10;0.57;;;10.60;99.90;;;;;;5092414;28;20458;-77
2022/10/25 01:34:56;;;;;;;0.67;0.63;;;10.60;99.90;;;;;;5089929;28;21285;-76
2022/10/25 01:37:32;;;;;;;1.27;0.87;;;10.50;99.90;;;;;;5085591;28;20551;-76
2022/10/25 01:40:05;;;;;;;1.20;0.70;;;10.30;99.90;;;;;;5091309;28;20458;-76
2022/10/25 01:42:43;;;;;;;0.70;0.67;;;10.20;99.90;;;;;;5092429;28;20528;-76
2022/10/25 01:45:15;;;;;;;1.57;0.77;;;10.20;99.90;;;;;;5086947;28;20511;-76
2022/10/25 01:47:49;;;;;;;13.50;4.33;;;10.20;99.90;;;;;;5088417;28;20943;-76
2022/10/25 01:50:24;;;;;;;1.03;0.70;;;10.10;99.90;;;;;;5092501;28;20475;-76
2022/10/25 01:52:51;;;;;;;2.30;0.97;;;10.10;99.90;;;;;;5080250;28;20484;-76
2022/10/25 01:55:20;;;;;;;0.70;0.70;;;10.10;99.90;;;;;;5087519;28;20969;-76
2022/10/25 01:58:02;;;;;;;1.13;0.90;;;10.00;99.90;;;;;;5087817;28;20539;-76
2022/10/25 02:00:32;;;;;;;1.43;1.33;;;9.90;99.90;;;;;;5092635;28;20502;-76
2022/10/25 02:03:13;;;;;;;1.67;0.70;;;9.90;99.90;;;;;;5078825;28;20581;-76
2022/10/25 02:05:54;;;;;;;2.10;1.47;;;10.10;99.90;;;;;;5076889;28;20524;-76
2022/10/25 02:08:29;;;;;;;2.33;1.10;;;10.00;99.90;;;;;;5084224;28;20997;-76
2022/10/25 02:11:06;;;;;;;1.70;1.50;;;10.00;99.90;;;;;;5086581;28;20457;-76
2022/10/25 02:13:43;;;;;;;1.50;1.40;;;10.10;99.90;;;;;;5088400;28;20453;-76
2022/10/25 02:16:13;;;;;;;1.00;1.00;;;10.10;99.90;;;;;;5090423;28;20465;-76
2022/10/25 02:18:48;;;;;;;1.23;1.13;;;10.10;99.90;;;;;;5081992;28;20494;-76
2022/10/25 02:21:17;;;;;;;1.20;1.20;;;10.10;99.90;;;;;;5076650;28;20545;-76
2022/10/25 02:23:45;;;;;;;1.97;0.90;;;10.10;99.90;;;;;;5074704;28;20971;-76
2022/10/25 02:26:14;;;;;;;2.07;1.73;;;10.10;99.90;;;;;;5085595;27;20490;-76
2022/10/25 02:28:42;;;;;;;0.70;0.67;;;10.10;99.90;;;;;;5073147;28;20551;-76
2022/10/25 02:31:12;;;;;;;1.00;0.90;;;10.20;99.90;;;;;;5077410;28;20499;-76
2022/10/25 02:33:43;;;;;;;1.23;0.87;;;10.10;99.90;;;;;;5079039;28;20924;-76
2022/10/25 02:36:14;;;;;;;1.47;0.73;;;10.10;99.90;;;;;;5092389;28;20525;-76
2022/10/25 02:38:41;;;;;;;1.30;0.77;;;9.90;99.90;;;;;;5084077;28;20463;-76
2022/10/25 02:41:09;;;;;;;1.37;1.30;;;9.90;99.90;;;;;;5084327;28;20934;-76
2022/10/25 02:43:36;;;;;;;8.00;1.20;;;9.80;99.90;;;;;;5089425;28;20555;-76
2022/10/25 02:46:06;;;;;;;1.63;0.90;;;9.80;99.90;;;;;;5096441;28;20462;-76
2022/10/25 02:48:34;;;;;;;4.97;0.80;;;9.80;99.90;;;;;;5090831;28;20467;-76
2022/10/25 02:51:02;;;;;;;3.80;1.10;;;9.80;99.90;;;;;;5095256;28;20551;-76
2022/10/25 02:53:29;;;;;;;4.83;0.87;;;9.80;99.90;;;;;;5091870;28;20458;-76
2022/10/25 02:56:01;;;;;;;0.90;0.80;;;9.80;99.90;;;;;;5089754;28;20466;-77
2022/10/25 02:58:30;;;;;;;2.73;1.17;;;9.80;99.90;;;;;;5076598;28;20462;-76
2022/10/25 03:00:58;;;;;;;1.73;0.70;;;9.80;99.90;;;;;;5074552;28;20463;-77
2022/10/25 03:03:25;;;;;;;1.43;0.73;;;9.80;99.90;;;;;;5077359;28;20901;-76
2022/10/25 03:05:52;;;;;;;1.03;0.87;;;9.80;99.90;;;;;;5074585;28;20554;-76
2022/10/25 03:08:21;;;;;;;0.90;0.80;;;9.90;99.90;;;;;;5074610;28;20494;-77
2022/10/25 03:10:48;;;;;;;4.50;0.70;;;10.00;99.90;;;;;;5073776;28;20498;-77
2022/10/25 03:13:15;;;;;;;0.53;0.53;;;10.00;99.90;;;;;;5073803;28;20494;-76
2022/10/25 03:15:43;;;;;;;3.60;0.70;;;10.10;99.90;;;;;;5074267;28;21952;-77
2022/10/25 03:18:10;;;;;;;1.63;0.70;;;10.10;99.90;;;;;;5073420;28;20464;-77
2022/10/25 03:20:37;;;;;;;4.90;0.80;;;10.10;99.90;;;;;;5072018;28;20548;-76
2022/10/25 03:23:04;;;;;;;1.70;0.97;;;10.00;99.90;;;;;;5077873;28;20473;-77
2022/10/25 03:25:34;;;;;;;1.27;0.80;;;10.00;99.90;;;;;;5074853;28;20552;-76
2022/10/25 03:28:01;;;;;;;0.97;0.97;;;9.90;99.90;;;;;;5075113;28;20498;-76
2022/10/25 03:30:29;;;;;;;0.47;0.47;;;9.90;99.90;;;;;;5078535;28;20498;-77
2022/10/25 03:32:57;;;;;;;0.97;0.83;;;9.70;99.90;;;;;;5073721;28;20611;-76
2022/10/25 03:35:24;;;;;;;0.60;0.60;;;9.60;99.90;;;;;;5076928;28;20493;-76
2022/10/25 03:37:52;;;;;;;2.30;0.90;;;9.60;99.90;;;;;;5072786;28;20494;-76
2022/10/25 03:40:20;;;;;;;1.10;0.90;;;9.60;99.90;;;;;;5076481;28;20593;-77
2022/10/25 03:42:48;;;;;;;0.80;0.80;;;9.70;99.90;;;;;;5075909;28;20523;-76
2022/10/25 03:45:15;;;;;;;5.43;2.23;;;9.70;99.90;;;;;;5078130;28;20551;-76
2022/10/25 03:47:42;;;;;;;1.00;1.00;;;9.70;99.90;;;;;;5074313;28;20467;-76
2022/10/25 03:50:09;;;;;;;1.63;0.90;;;9.70;99.90;;;;;;5077257;28;20534;-76
2022/10/25 03:52:37;;;;;;;1.23;1.13;;;9.70;99.90;;;;;;5073044;28;20490;-76
2022/10/25 03:55:05;;;;;;;1.93;1.63;;;9.60;99.90;;;;;;5077288;28;20567;-76
2022/10/25 03:57:32;;;;;;;2.53;1.67;;;9.60;99.90;;;;;;5078004;28;20459;-76
2022/10/25 04:00:00;;;;;;;1.93;1.83;;;9.60;99.90;;;;;;5095391;28;20447;-76
2022/10/25 04:02:28;;;;;;;2.20;1.23;;;9.60;99.90;;;;;;5099707;28;20457;-76
2022/10/25 04:04:55;;;;;;;2.43;2.30;;;9.50;99.90;;;;;;5089549;28;20486;-77
2022/10/25 04:07:22;;;;;;;7.73;3.30;;;9.40;99.90;;;;;;5089901;28;20919;-76
2022/10/25 04:09:49;;;;;;;1.50;1.40;;;9.30;99.90;;;;;;5088006;27;20461;-76
2022/10/25 04:12:16;;;;;;;2.73;1.50;;;9.30;99.90;;;;;;5085010;28;20451;-76
2022/10/25 04:14:43;;;;;;;1.50;1.40;;;9.20;99.90;;;;;;5089325;28;20972;-76
2022/10/25 04:17:12;;;;;;;2.00;1.80;;;9.30;99.90;;;;;;5085370;28;20907;-76
2022/10/25 04:19:38;;;;;;;6.03;1.30;;;9.20;99.90;;;;;;5081969;28;20482;-77
2022/10/25 04:22:05;;;;;;;1.73;1.43;;;9.20;99.90;;;;;;5086821;28;20455;-76
2022/10/25 04:24:32;;;;;;;1.00;0.90;;;9.20;99.90;;;;;;5095356;27;20583;-76
2022/10/25 04:26:59;;;;;;;1.23;0.90;;;9.10;99.90;;;;;;5100418;27;20570;-76
2022/10/25 04:29:26;;;;;;;3.37;1.60;;;9.10;99.90;;;;;;5091756;28;21007;-76
2022/10/25 04:31:53;;;;;;;1.40;1.30;;;9.00;99.90;;;;;;5087598;28;20567;-76
2022/10/25 04:34:21;;;;;;;2.70;1.00;;;9.00;99.90;;;;;;5079897;28;20961;-76
2022/10/25 04:36:48;;;;;;;1.60;1.50;;;9.00;99.90;;;;;;5088652;28;20459;-76
2022/10/25 04:39:15;;;;;;;1.90;1.43;;;9.00;99.90;;;;;;5095589;28;20494;-76
2022/10/25 04:41:42;;;;;;;2.40;1.10;;;9.20;99.90;;;;;;5094540;28;20454;-76
2022/10/25 04:44:09;;;;;;;3.47;1.40;;;9.20;99.90;;;;;;5090267;28;20522;-77
2022/10/25 04:46:37;;;;;;;2.00;1.33;;;9.20;99.90;;;;;;5097717;28;20543;-76
2022/10/25 04:49:04;;;;;;;2.93;1.40;;;9.10;99.90;;;;;;5100514;28;20469;-77
2022/10/25 04:51:33;;;;;;;3.57;2.00;;;9.10;99.90;;;;;;5094816;28;20917;-77
2022/10/25 04:54:00;;;;;;;2.90;1.27;;;9.00;99.90;;;;;;5088442;28;20455;-77
2022/10/25 04:56:28;;;;;;;2.03;1.83;;;8.90;99.90;;;;;;5089199;28;21023;-77
2022/10/25 04:58:56;;;;;;;4.60;2.23;;;8.90;99.90;;;;;;5091104;28;20478;-77
2022/10/25 05:01:23;;;;;;;2.60;1.87;;;8.90;99.90;;;;;;5099137;28;20451;-77
2022/10/25 05:03:49;;;;;;;1.57;1.47;;;8.80;99.90;;;;;;5087899;28;20478;-76
2022/10/25 05:06:20;;;;;;;1.23;1.13;;;8.80;99.90;;;;;;5092453;28;20459;-77
2022/10/25 05:08:50;;;;;;;2.00;1.43;;;8.90;99.90;;;;;;5086454;28;20519;-77
2022/10/25 05:11:18;;;;;;;2.63;2.17;;;8.80;99.90;;;;;;5089039;28;20459;-77
2022/10/25 05:13:46;;;;;;;2.13;1.63;;;8.70;99.90;;;;;;5103732;28;20437;-76
2022/10/25 05:16:16;;;;;;;1.77;1.67;;;8.60;99.90;;;;;;5101912;28;20549;-77
2022/10/25 05:18:44;;;;;;;9.93;1.70;;;8.70;99.90;;;;;;5095624;28;20465;-76
2022/10/25 05:21:12;;;;;;;3.23;1.77;;;8.70;99.90;;;;;;5092315;28;20493;-76
2022/10/25 05:23:39;;;;;;;1.83;1.57;;;8.60;99.90;;;;;;5091591;28;20785;-76
2022/10/25 05:26:10;;;;;;;1.63;1.53;;;8.60;99.90;;;;;;5095205;28;20526;-76
2022/10/25 05:28:39;;;;;;;1.50;1.40;;;8.70;99.90;;;;;;5085549;28;20494;-76
2022/10/25 05:31:07;;;;;;;1.70;1.60;;;8.60;99.90;;;;;;5093523;28;20484;-76
2022/10/25 05:33:34;;;;;;;2.70;1.53;;;8.50;99.90;;;;;;5100685;28;21022;-76
2022/10/25 05:36:03;;;;;;;3.97;1.97;;;8.50;99.90;;;;;;5099407;28;20516;-76
2022/10/25 05:38:30;;;;;;;7.33;2.27;;;8.50;99.90;;;;;;5091532;28;20514;-75
2022/10/25 05:40:59;;;;;;;3.90;1.87;;;8.60;99.90;;;;;;5081572;28;20481;-77
2022/10/25 05:43:27;;;;;;;5.90;2.57;;;8.70;99.90;;;;;;5085539;28;21054;-76
2022/10/25 05:46:03;;;;;;;5.20;2.50;;;8.80;99.90;;;;;;5091838;28;20482;-75
2022/10/25 05:48:30;;;;;;;2.43;2.23;;;8.90;99.90;;;;;;5088957;28;20960;-76
2022/10/25 05:51:12;;;;;;;6.17;3.17;;;9.00;99.90;;;;;;5087595;28;20458;-76
2022/10/25 05:53:43;;;;;;;4.03;3.17;;;9.10;99.90;;;;;;5091464;28;20462;-76
2022/10/25 05:56:10;;;;;;;5.60;2.60;;;9.20;99.90;;;;;;5091188;27;20469;-76
2022/10/25 05:58:38;;;;;;;3.37;2.60;;;9.30;99.90;;;;;;5088475;28;20463;-76
2022/10/25 06:01:05;;;;;;;3.53;2.70;;;9.40;99.90;;;;;;5093338;28;20450;-76
2022/10/25 06:03:33;;;;;;;1.80;1.70;;;9.60;99.90;;;;;;5090812;27;20463;-76
2022/10/25 06:06:01;;;;;;;2.93;1.90;;;9.70;99.90;;;;;;5082827;28;20551;-76
2022/10/25 06:08:28;;;;;;;2.63;1.43;;;9.80;99.90;;;;;;5084072;28;20458;-76
2022/10/25 06:10:55;;;;;;;1.33;1.23;;;9.90;99.90;;;;;;5095374;28;20516;-76
2022/10/25 06:13:22;;;;;;;1.60;1.50;;;10.10;99.90;;;;;;5089581;28;20439;-76
2022/10/25 06:15:50;;;;;;;1.40;1.30;;;10.20;99.90;;;;;;5088022;28;20837;-76
2022/10/25 06:18:17;;;;;;;1.50;1.23;;;10.30;99.90;;;;;;5083758;28;20919;-76
2022/10/25 06:20:44;;;;;;;1.10;0.80;;;10.40;99.90;;;;;;5090978;28;20559;-76
2022/10/25 06:23:11;;;;;;;1.87;1.30;;;10.50;99.90;;;;;;5090146;28;20461;-76
2022/10/25 06:25:38;;;;;;;1.90;1.10;;;10.50;99.90;;;;;;5086969;27;20487;-76
2022/10/25 06:28:08;;;;;;;2.03;1.83;;;10.50;99.90;;;;;;5089048;28;20526;-78
2022/10/25 06:30:35;;;;;;;13.70;9.70;;;10.50;99.90;;;;;;5086385;28;20473;-76
2022/10/25 06:33:03;;;;;;;19.67;13.50;;;10.40;99.90;;;;;;5086348;28;20558;-76
2022/10/25 06:35:32;;;;;;;28.43;16.73;;;10.40;99.90;;;;;;5088174;28;20535;-76
2022/10/25 06:38:00;;;;;;;13.67;9.70;;;10.40;99.90;;;;;;5085550;27;20520;-76
2022/10/25 06:40:27;;;;;;;10.73;5.60;;;10.40;99.90;;;;;;5094361;28;20580;-77
2022/10/25 06:42:55;;;;;;;12.73;6.83;;;10.40;99.90;;;;;;5089873;28;20576;-77
2022/10/25 06:45:22;;;;;;;18.13;8.33;;;10.50;99.90;;;;;;5087305;28;20479;-77
2022/10/25 06:47:50;;;;;;;12.73;6.93;;;10.50;99.90;;;;;;5093199;28;20466;-77
2022/10/25 06:50:18;;;;;;;10.20;7.53;;;10.60;99.90;;;;;;5085914;28;20520;-78
2022/10/25 06:52:45;;;;;;;6.33;4.07;;;10.70;99.90;;;;;;5089884;28;20536;-76
2022/10/25 06:55:12;;;;;;;13.53;6.70;;;10.80;99.90;;;;;;5086554;28;20462;-77
2022/10/25 06:57:39;;;;;;;20.60;12.17;;;10.90;99.90;;;;;;5084910;28;20470;-77
2022/10/25 07:00:08;;;;;;;18.83;10.27;;;11.00;99.90;;;;;;5087011;28;20496;-76
2022/10/25 07:02:35;;;;;;;5.53;3.57;;;11.10;99.90;;;;;;5096890;28;21058;-76
2022/10/25 07:05:02;;;;;;;1.80;0.93;;;11.10;99.90;;;;;;5088924;28;20486;-77
2022/10/25 07:07:30;;;;;;;8.03;4.53;;;11.10;99.90;;;;;;5093338;28;20526;-77
2022/10/25 07:09:57;;;;;;;14.40;7.13;;;11.30;99.90;;;;;;5096293;27;20507;-77
2022/10/25 07:12:24;;;;;;;7.20;4.60;;;11.40;99.90;;;;;;5084815;28;20460;-76
2022/10/25 07:14:51;;;;;;;5.90;3.67;;;11.50;99.90;;;;;;5086131;28;20521;-77
2022/10/25 07:17:18;;;;;;;8.03;2.90;;;11.40;99.90;;;;;;5090591;28;20458;-77
2022/10/25 07:19:45;;;;;;;14.70;9.60;;;11.40;99.90;;;;;;5090000;28;20489;-77
2022/10/25 07:22:12;;;;;;;9.07;8.17;;;11.30;99.90;;;;;;5083498;28;20462;-77
2022/10/25 07:24:40;;;;;;;6.53;6.03;;;11.30;99.90;;;;;;5082692;27;20590;-77
2022/10/25 07:27:07;;;;;;;2.80;2.60;;;11.30;99.90;;;;;;5083782;28;20498;-77
2022/10/25 07:29:34;;;;;;;1.90;1.80;;;11.30;99.90;;;;;;5080387;28;20526;-76
2022/10/25 07:32:01;;;;;;;4.20;2.40;;;11.30;99.90;;;;;;5094022;28;20554;-76
2022/10/25 07:34:29;;;;;;;3.57;3.27;;;11.30;99.90;;;;;;5096499;27;20523;-76
2022/10/25 07:36:56;;;;;;;10.73;4.10;;;11.60;99.90;;;;;;5093775;28;20523;-76
2022/10/25 07:39:23;;;;;;;3.33;3.07;;;11.80;99.90;;;;;;5094353;28;21241;-76
2022/10/25 07:41:52;;;;;;;3.70;3.37;;;11.90;99.90;;;;;;5088631;27;20503;-76
2022/10/25 07:44:19;;;;;;;7.77;7.07;;;12.10;99.90;;;;;;5086085;28;20460;-76
2022/10/25 07:46:47;;;;;;;8.90;8.10;;;12.20;99.90;;;;;;5090594;28;20860;-74
2022/10/25 07:49:14;;;;;;;8.47;7.77;;;12.20;99.90;;;;;;5085234;28;20463;-76
2022/10/25 07:51:41;;;;;;;9.20;7.80;;;12.10;99.90;;;;;;5081854;27;20460;-77
2022/10/25 07:54:09;;;;;;;3.63;3.33;;;12.30;99.90;;;;;;5090120;28;21119;-76
2022/10/25 07:56:36;;;;;;;2.03;1.50;;;12.40;99.90;;;;;;5095945;28;20561;-76
2022/10/25 07:59:04;;;;;;;0.97;0.93;;;12.40;99.90;;;;;;5088620;28;20919;-76
2022/10/25 08:01:31;;;;;;;1.40;1.30;;;12.50;99.90;;;;;;5093559;28;20825;-76
2022/10/25 08:03:58;;;;;;;1.10;1.00;;;12.60;99.90;;;;;;5089925;28;20516;-76
2022/10/25 08:06:25;;;;;;;0.70;0.40;;;12.80;99.90;;;;;;5083947;28;20509;-76
2022/10/25 08:08:53;;;;;;;0.60;0.57;;;12.80;99.90;;;;;;5091077;28;20471;-76
2022/10/25 08:11:20;;;;;;;2.40;1.17;;;12.80;99.90;;;;;;5094202;28;20560;-76
2022/10/25 08:13:49;;;;;;;2.07;0.90;;;12.60;99.90;;;;;;5096534;28;20536;-77
2022/10/25 08:16:18;;;;;;;5.33;2.33;;;12.70;99.90;;;;;;5099119;28;20466;-76
2022/10/25 08:18:45;;;;;;;1.83;1.33;;;12.70;99.90;;;;;;5098585;28;20926;-76
2022/10/25 08:21:12;;;;;;;3.30;1.17;;;12.80;99.90;;;;;;5091669;28;20982;-76
2022/10/25 08:23:39;;;;;;;1.57;0.60;;;12.90;99.90;;;;;;5086045;28;20473;-76
2022/10/25 08:26:07;;;;;;;0.63;0.60;;;12.90;99.90;;;;;;5093263;28;20480;-78
2022/10/25 08:28:33;;;;;;;0.73;0.60;;;12.90;99.90;;;;;;5092773;28;20545;-79
2022/10/25 08:31:03;;;;;;;2.27;0.50;;;12.80;99.90;;;;;;5085774;28;20526;-78
2022/10/25 08:33:31;;;;;;;1.70;0.50;;;12.80;99.90;;;;;;5084973;28;20559;-78
2022/10/25 08:36:00;;;;;;;0.70;0.37;;;12.70;99.90;;;;;;5086785;28;20800;-79
2022/10/25 08:38:27;;;;;;;0.60;0.60;;;12.60;99.90;;;;;;5093053;28;20467;-79
2022/10/25 08:41:00;;;;;;;2.70;0.60;;;12.50;99.90;;;;;;5083178;28;20466;-76
2022/10/25 08:44:01;;;;;;;1.97;0.53;;;12.60;99.90;;;;;;5087695;28;20464;-76
2022/10/25 08:46:32;;;;;;;0.70;0.60;;;12.70;99.90;;;;;;5084452;28;20511;-78
2022/10/25 08:49:09;;;;;;;0.70;0.67;;;12.70;99.90;;;;;;5083966;28;21170;-79
2022/10/25 08:51:39;;;;;;;1.37;1.07;;;13.00;99.90;;;;;;5094387;28;20519;-77
2022/10/25 08:54:18;;;;;;;1.57;1.47;;;13.40;99.90;;;;;;5092774;28;20465;-77
2022/10/25 08:56:45;;;;;;;0.70;0.70;;;13.60;99.90;;;;;;5090241;28;20462;-77
2022/10/25 08:59:19;;;;;;;1.43;0.60;;;13.80;99.90;;;;;;5091181;28;20455;-77
2022/10/25 09:01:52;;;;;;;6.10;0.90;;;13.90;99.90;;;;;;5089429;28;20513;-77
2022/10/25 09:04:21;;;;;;;1.83;1.73;;;14.00;99.90;;;;;;5090135;28;21304;-77
2022/10/25 09:06:55;;;;;;;5.00;2.80;;;14.10;99.90;;;;;;5101017;28;20489;-77
2022/10/25 09:09:30;;;;;;;3.20;1.63;;;14.20;99.90;;;;;;5086399;28;20673;-77
2022/10/25 09:12:06;;;;;;;2.93;2.43;;;14.20;99.90;;;;;;5087766;28;20490;-78
2022/10/25 09:14:43;;;;;;;2.40;2.20;;;14.40;99.90;;;;;;5089906;28;20978;-78
2022/10/25 09:17:17;;;;;;;3.60;1.57;;;14.50;99.90;;;;;;5088697;28;21320;-78
2022/10/25 09:19:59;;;;;;;1.23;0.83;;;14.70;99.90;;;;;;5091755;28;20937;-78
2022/10/25 09:22:28;;;;;;;3.47;1.00;;;14.80;99.90;;;;;;5093087;28;20883;-76
2022/10/25 09:25:00;;;;;;;1.80;0.73;;;15.00;99.90;;;;;;5082150;28;20978;-77
2022/10/25 09:27:35;;;;;;;0.80;0.77;;;15.00;99.90;;;;;;5095507;28;20483;-77
2022/10/25 09:30:06;;;;;;;1.87;1.00;;;15.20;99.90;;;;;;5098405;28;20851;-78
2022/10/25 09:32:39;;;;;;;1.10;1.00;;;15.30;99.90;;;;;;5094247;28;20464;-78
2022/10/25 09:35:15;;;;;;;4.90;1.40;;;15.30;99.90;;;;;;5088232;28;20458;-78
2022/10/25 09:37:45;;;;;;;2.10;1.10;;;15.40;99.90;;;;;;5089076;28;20464;-78
2022/10/25 09:40:16;;;;;;;0.87;0.70;;;15.50;99.90;;;;;;5092062;28;20792;-78
2022/10/25 09:42:48;;;;;;;1.87;0.67;;;15.50;99.90;;;;;;5094545;28;20493;-78
2022/10/25 09:45:20;;;;;;;3.43;0.70;;;15.70;99.90;;;;;;5090182;28;20521;-76
2022/10/25 09:47:54;;;;;;;1.07;0.67;;;15.60;99.90;;;;;;5086401;28;20453;-76
2022/10/25 09:50:27;;;;;;;0.60;0.50;;;15.70;99.90;;;;;;5100205;28;20463;-76
2022/10/25 09:53:09;;;;;;;1.43;0.50;;;15.70;99.90;;;;;;5096295;28;20539;-76
2022/10/25 09:55:41;;;;;;;4.23;2.53;;;15.60;99.90;;;;;;5103280;28;20459;-76
2022/10/25 09:58:16;;;;;;;7.27;5.47;;;15.70;99.90;;;;;;5092182;28;20492;-76
2022/10/25 10:00:43;;;;;;;1.83;1.27;;;15.80;99.90;;;;;;5089349;28;20664;-75
2022/10/25 10:03:11;;;;;;;3.00;1.97;;;15.80;99.90;;;;;;5100544;28;20452;-76
2022/10/25 10:05:42;;;;;;;0.70;0.60;;;15.80;99.90;;;;;;5091129;28;20557;-76
2022/10/25 10:08:09;;;;;;;2.57;0.87;;;15.70;99.90;;;;;;5089867;28;20574;-76
2022/10/25 10:10:37;;;;;;;2.20;0.83;;;15.80;99.90;;;;;;5094824;28;20543;-76
2022/10/25 10:13:10;;;;;;;1.00;0.50;;;15.90;99.90;;;;;;5093632;28;20537;-76
2022/10/25 10:15:45;;;;;;;0.63;0.50;;;15.90;99.90;;;;;;5085679;27;20464;-76
2022/10/25 10:18:23;;;;;;;0.73;0.70;;;16.00;99.90;;;;;;5088493;28;21546;-76
2022/10/25 10:21:04;;;;;;;4.83;0.70;;;15.90;99.90;;;;;;5085332;28;20506;-76
2022/10/25 10:23:35;;;;;;;1.67;1.23;;;16.00;99.90;;;;;;5089983;28;20522;-76
2022/10/25 10:26:09;;;;;;;0.83;0.80;;;16.00;99.90;;;;;;5105271;27;20545;-76
2022/10/25 10:28:37;;;;;;;1.03;0.90;;;16.10;99.90;;;;;;5088759;28;20489;-77
2022/10/25 10:31:07;;;;;;;4.63;1.20;;;16.10;99.90;;;;;;5096000;28;20461;-77
2022/10/25 10:33:37;;;;;;;0.60;0.60;;;16.00;99.90;;;;;;5093723;27;20480;-77
2022/10/25 10:36:23;;;;;;;0.80;0.80;;;16.10;99.90;;;;;;5079710;28;20506;-77
2022/10/25 10:38:51;;;;;;;2.70;1.10;;;16.10;99.90;;;;;;5089180;27;20558;-77
2022/10/25 10:41:24;;;;;;;2.47;1.83;;;16.10;99.90;;;;;;5090524;27;20463;-77
2022/10/25 10:43:51;;;;;;;1.00;0.90;;;16.10;99.90;;;;;;5091984;28;20457;-77
2022/10/25 10:46:22;;;;;;;5.50;1.10;;;16.10;99.90;;;;;;5086952;28;20491;-77
2022/10/25 10:48:55;;;;;;;3.83;1.70;;;16.20;99.90;;;;;;5094485;28;20538;-77
2022/10/25 10:51:37;;;;;;;3.43;0.80;;;16.30;99.90;;;;;;5089400;28;20472;-77
2022/10/25 10:54:25;;;;;;;1.03;0.70;;;16.30;99.90;;;;;;5087775;28;20823;-76
2022/10/25 10:56:58;;;;;;;1.53;1.00;;;16.50;99.90;;;;;;5090033;28;20462;-77
2022/10/25 10:59:32;;;;;;;1.80;0.60;;;16.60;99.90;;;;;;5096911;28;20969;-77
2022/10/25 11:02:11;;;;;;;1.03;0.47;;;16.70;99.90;;;;;;5093319;28;20456;-76
2022/10/25 11:04:48;;;;;;;1.93;0.90;;;16.70;99.90;;;;;;5104029;28;20469;-76
2022/10/25 11:07:24;;;;;;;4.30;0.50;;;16.70;99.90;;;;;;5099306;28;20988;-76
2022/10/25 11:09:51;;;;;;;1.10;0.60;;;17.00;99.90;;;;;;5097246;27;20461;-77
2022/10/25 11:12:18;;;;;;;0.60;0.50;;;17.00;99.90;;;;;;5091536;28;20874;-77
2022/10/25 11:14:45;;;;;;;0.50;0.47;;;17.10;99.90;;;;;;5095979;28;20470;-77
2022/10/25 11:17:16;;;;;;;1.83;0.50;;;17.10;99.90;;;;;;5087034;28;20459;-77
2022/10/25 11:20:07;;;;;;;0.80;0.80;;;17.10;99.90;;;;;;5090568;28;21272;-77
2022/10/25 11:22:49;;;;;;;2.50;0.90;;;17.10;99.90;;;;;;5090131;28;20446;-77
2022/10/25 11:25:28;;;;;;;1.27;0.73;;;17.20;99.90;;;;;;5096989;27;20442;-77
2022/10/25 11:28:21;;;;;;;2.20;0.60;;;17.30;99.90;;;;;;5092206;28;20485;-77
2022/10/25 11:31:01;;;;;;;2.70;0.63;;;17.30;99.90;;;;;;5098082;28;20468;-77
2022/10/25 11:33:57;;;;;;;1.83;0.50;;;17.20;99.90;;;;;;5100560;27;20462;-76
2022/10/25 11:36:58;;;;;;;2.60;0.70;;;17.40;99.90;;;;;;5091154;28;20821;-76
2022/10/25 11:39:41;;;;;;;2.40;0.77;;;17.40;99.90;;;;;;5058660;28;20544;-76
2022/10/25 11:42:29;;;;;;;4.30;0.57;;;17.40;99.90;;;;;;5091515;28;20520;-76
2022/10/25 11:45:40;;;;;;;1.07;0.63;;;17.30;99.90;;;;;;5087367;28;20512;-76
2022/10/25 11:48:33;;;;;;;4.37;1.20;;;17.30;99.90;;;;;;5091204;28;20522;-76
2022/10/25 11:51:10;;;;;;;1.23;0.60;;;17.40;99.90;;;;;;5087001;27;20454;-76
2022/10/25 11:54:00;;;;;;;1.20;0.80;;;17.40;99.90;;;;;;5086896;28;20521;-76
2022/10/25 11:56:35;;;;;;;0.90;0.43;;;17.50;99.90;;;;;;5094165;28;20519;-76
2022/10/25 11:59:11;;;;;;;0.97;0.53;;;17.60;99.90;;;;;;5092893;28;20533;-76
2022/10/25 12:01:52;;;;;;;0.50;0.40;;;17.70;99.90;;;;;;5095469;28;21244;-76
2022/10/25 12:04:42;;;;;;;0.50;0.40;;;17.50;99.90;;;;;;5092965;28;20448;-76
2022/10/25 12:07:15;;;;;;;0.67;0.40;;;17.50;99.90;;;;;;5086394;28;20487;-76
2022/10/25 12:09:53;;;;;;;0.90;0.43;;;17.50;99.90;;;;;;5084907;28;20520;-76
2022/10/25 12:12:26;;;;;;;2.10;0.70;;;17.60;99.90;;;;;;5092129;28;20462;-76
2022/10/25 12:14:57;;;;;;;0.70;0.50;;;17.60;99.90;;;;;;5091471;28;20928;-76
2022/10/25 12:17:28;;;;;;;2.20;0.60;;;17.70;99.90;;;;;;5092077;28;20499;-76
2022/10/25 12:19:58;;;;;;;1.30;0.60;;;17.70;99.90;;;;;;5089250;28;20483;-76
2022/10/25 12:22:28;;;;;;;0.53;0.40;;;17.60;99.90;;;;;;5081878;28;20814;-76
2022/10/25 12:24:59;;;;;;;3.90;0.77;;;17.60;99.90;;;;;;5091065;28;20500;-76
2022/10/25 12:27:29;;;;;;;0.90;0.40;;;17.60;99.90;;;;;;5092378;28;20655;-76
2022/10/25 12:30:01;;;;;;;0.80;0.60;;;17.50;99.90;;;;;;5093876;28;20973;-76
2022/10/25 12:32:35;;;;;;;0.57;0.53;;;17.70;99.90;;;;;;5094762;28;21139;-76
2022/10/25 12:35:06;;;;;;;0.77;0.77;;;17.70;99.90;;;;;;5089054;28;20465;-76
2022/10/25 12:37:38;;;;;;;0.80;0.40;;;17.70;99.90;;;;;;5096389;28;20963;-76
2022/10/25 12:40:07;;;;;;;2.13;0.60;;;17.80;99.90;;;;;;5093672;28;20480;-76
2022/10/25 12:42:44;;;;;;;2.63;0.60;;;17.80;99.90;;;;;;5094370;28;20462;-76
2022/10/25 12:45:38;;;;;;;4.40;0.50;;;17.80;99.90;;;;;;5100467;27;20845;-76
2022/10/25 12:48:20;;;;;;;3.33;0.50;;;17.50;99.90;;;;;;5089037;28;20549;-76
2022/10/25 12:51:21;;;;;;;1.63;0.40;;;17.40;99.90;;;;;;5096044;28;20847;-76
2022/10/25 12:54:24;;;;;;;1.37;0.50;;;17.40;99.90;;;;;;5054388;28;20462;-76
2022/10/25 12:57:01;;;;;;;1.27;0.50;;;17.40;99.90;;;;;;5092386;28;20442;-76
2022/10/25 12:59:47;;;;;;;2.23;0.70;;;17.50;99.90;;;;;;5101358;28;20465;-76
2022/10/25 13:02:57;;;;;;;1.53;0.70;;;17.50;99.90;;;;;;5097301;27;20527;-77
2022/10/25 13:05:45;;;;;;;0.60;0.50;;;17.70;99.90;;;;;;5081628;28;20856;-77
2022/10/25 13:08:16;;;;;;;1.17;0.50;;;17.70;99.90;;;;;;5098014;28;20543;-77
2022/10/25 13:10:47;;;;;;;0.70;0.50;;;17.70;99.90;;;;;;5107541;28;20833;-76